Time;durP1;ratioP1;P1;durP2;ratioP2;P2;SDS_P1;SDS_P2;PMS_P1;PMS_P2;Temp;Humidity;BMP_temperature;BMP_pressure;BME280_temperature;BME280_humidity;BME280_pressure;Samples;Min_cycle;Max_cycle;Signal;HPM_P1;HPM_P2
2022/10/16 00:00:25;;;;;;;3.67;1.57;;;;;;;18.52;65.75;96514.38;10568085;28;20835;-32
2022/10/16 00:05:25;;;;;;;3.53;1.37;;;;;;;18.51;66.05;96510.97;10561733;28;20481;-32
2022/10/16 00:10:26;;;;;;;2.07;1.73;;;;;;;18.51;65.50;96512.69;10559488;28;20084;-32
2022/10/16 00:15:26;;;;;;;2.90;1.37;;;;;;;18.50;65.32;96506.75;10557683;28;20282;-32
2022/10/16 00:20:26;;;;;;;2.90;1.40;;;;;;;18.50;65.04;96506.75;10557584;28;20496;-32
2022/10/16 00:25:27;;;;;;;1.83;1.40;;;;;;;18.51;64.79;96517.75;10564806;28;20020;-32
2022/10/16 00:30:28;;;;;;;3.20;1.70;;;;;;;18.49;68.79;96514.38;10554994;28;20289;-31
2022/10/16 00:35:29;;;;;;;2.97;1.75;;;;;;;18.57;69.21;96522.81;10557845;28;20281;-31
2022/10/16 00:40:29;;;;;;;3.30;1.50;;;;;;;18.52;67.62;96532.13;10565074;28;20385;-31
2022/10/16 00:45:29;;;;;;;2.77;1.40;;;;;;;18.54;66.88;96527.88;10560812;28;20109;-31
2022/10/16 00:50:33;;;;;;;3.72;1.30;;;;;;;18.51;66.13;96527.91;10562938;28;20441;-32
2022/10/16 00:55:33;;;;;;;1.55;1.30;;;;;;;18.50;65.44;96532.09;10560098;28;20028;-31
2022/10/16 01:00:34;;;;;;;1.92;1.08;;;;;;;18.50;65.10;96531.28;10561469;28;20046;-31
2022/10/16 01:05:50;;;;;;;3.63;1.60;;;;;;;18.49;64.87;96535.50;10559132;28;20080;-31
2022/10/16 01:10:57;;;;;;;;;;;;;;;18.51;65.21;96548.19;10556664;28;20783;-31
2022/10/16 01:16:07;;;;;;;2.33;1.20;;;;;;;18.50;64.91;96546.50;10564409;28;19916;-31
2022/10/16 01:21:28;;;;;;;5.75;1.60;;;;;;;18.47;67.83;96549.88;10555198;28;20032;-30
2022/10/16 01:26:43;;;;;;;4.75;1.50;;;;;;;18.54;69.17;96543.94;10566191;28;20387;-31
2022/10/16 01:31:50;;;;;;;1.88;1.33;;;;;;;18.56;68.75;96543.91;10567355;28;20028;-31
2022/10/16 01:36:52;;;;;;;;;;;;;;;18.54;67.14;96550.69;10571775;28;20027;-32
2022/10/16 01:42:00;;;;;;;1.95;1.02;;;;;;;18.51;66.29;96554.06;10573129;28;19982;-31
2022/10/16 01:47:00;;;;;;;1.80;1.30;;;;;;;18.50;65.44;96554.94;10566305;28;20039;-31
2022/10/16 01:52:07;;;;;;;3.13;1.65;;;;;;;18.49;65.15;96537.22;10571905;28;20028;-31
2022/10/16 01:57:10;;;;;;;2.85;1.30;;;;;;;18.49;65.19;96542.28;10568325;28;20020;-32
2022/10/16 02:02:14;;;;;;;4.25;1.30;;;;;;;18.49;64.90;96529.59;10564937;28;20485;-31
2022/10/16 02:07:15;;;;;;;1.73;1.33;;;;;;;18.48;64.79;96522.81;10568196;28;20028;-31
2022/10/16 02:12:26;;;;;;;1.20;1.10;;;;;;;18.49;65.00;96532.13;10565291;28;20494;-31
2022/10/16 02:17:27;;;;;;;3.35;1.60;;;;;;;18.51;68.80;96532.97;10571602;28;20370;-31
2022/10/16 02:22:36;;;;;;;3.03;1.90;;;;;;;18.55;68.89;96540.56;10564784;28;20028;-31
2022/10/16 02:27:41;;;;;;;2.22;1.80;;;;;;;18.51;67.61;96535.50;10562214;28;20129;-31
2022/10/16 02:32:44;;;;;;;2.97;1.17;;;;;;;18.53;66.77;96543.94;10567297;28;20096;-31
2022/10/16 02:37:46;;;;;;;1.95;1.55;;;;;;;18.50;66.14;96542.25;10564414;28;20501;-31
2022/10/16 02:42:51;;;;;;;1.95;1.13;;;;;;;18.50;65.73;96551.56;10562770;28;20040;-31
2022/10/16 02:47:51;;;;;;;1.95;1.20;;;;;;;18.49;65.08;96554.94;10562430;28;20027;-32
2022/10/16 02:52:52;;;;;;;0.77;0.77;;;;;;;18.44;65.04;96557.50;10554309;28;20038;-32
2022/10/16 02:57:52;;;;;;;1.53;1.10;;;;;;;18.45;64.54;96548.19;10562976;28;20035;-31
2022/10/16 03:02:53;;;;;;;1.85;1.00;;;;;;;18.47;64.89;96556.63;10561255;28;20285;-32
2022/10/16 03:07:54;;;;;;;4.22;1.88;;;;;;;18.50;67.34;96560.00;10563088;28;20397;-32
2022/10/16 03:12:54;;;;;;;2.37;1.37;;;;;;;18.53;68.65;96569.28;10560575;28;20436;-32
2022/10/16 03:17:57;;;;;;;1.97;1.57;;;;;;;18.55;68.80;96560.84;10560359;28;20428;-32
2022/10/16 03:22:58;;;;;;;1.42;1.30;;;;;;;18.53;67.24;96561.69;10560966;28;20397;-32
2022/10/16 03:27:58;;;;;;;1.95;1.10;;;;;;;18.52;66.58;96563.41;10560010;28;20044;-32
2022/10/16 03:32:58;;;;;;;3.30;1.40;;;;;;;18.50;66.38;96557.47;10560918;28;20036;-31
2022/10/16 03:37:59;;;;;;;1.37;0.90;;;;;;;18.49;65.18;96554.94;10562141;28;20054;-32
2022/10/16 03:42:59;;;;;;;4.43;1.40;;;;;;;18.49;65.03;96555.78;10561691;28;20032;-31
2022/10/16 03:48:00;;;;;;;2.20;1.30;;;;;;;18.49;65.07;96554.94;10561443;28;20298;-31
2022/10/16 03:53:00;;;;;;;1.40;1.30;;;;;;;18.47;65.10;96554.94;10565779;28;20047;-31
2022/10/16 03:58:00;;;;;;;2.57;1.03;;;;;;;18.48;65.03;96554.09;10561985;28;20027;-31
2022/10/16 04:03:01;;;;;;;3.57;1.10;;;;;;;18.49;67.76;96565.09;10566074;28;20293;-32
2022/10/16 04:08:01;;;;;;;1.37;1.07;;;;;;;18.53;68.58;96556.63;10559450;28;20031;-31
2022/10/16 04:13:01;;;;;;;1.50;1.13;;;;;;;18.52;67.71;96565.94;10566308;28;20115;-32
2022/10/16 04:18:03;;;;;;;2.53;1.20;;;;;;;18.51;67.02;96558.31;10559991;28;20397;-31
2022/10/16 04:23:03;;;;;;;2.60;1.50;;;;;;;18.51;66.38;96568.47;10557018;28;20285;-31
2022/10/16 04:28:04;;;;;;;2.75;1.20;;;;;;;18.49;66.70;96576.06;10563774;28;20424;-31
2022/10/16 04:33:04;;;;;;;1.55;1.15;;;;;;;18.49;65.45;96585.38;10561958;28;20028;-31
2022/10/16 04:38:05;;;;;;;1.10;1.00;;;;;;;18.48;65.07;96578.59;10565478;28;20408;-32
2022/10/16 04:43:05;;;;;;;2.83;1.02;;;;;;;18.45;65.12;96571.00;10567072;28;20032;-31
2022/10/16 04:48:05;;;;;;;2.25;0.93;;;;;;;18.48;64.86;96579.44;10558041;28;20055;-31
2022/10/16 04:53:07;;;;;;;1.23;1.03;;;;;;;18.44;65.25;96570.19;10563573;28;20028;-31
2022/10/16 04:58:07;;;;;;;1.95;1.00;;;;;;;18.50;68.55;96587.06;10557138;28;20097;-31
2022/10/16 05:03:08;;;;;;;1.63;1.08;;;;;;;18.53;68.91;96574.38;10558285;28;20455;-31
2022/10/16 05:08:09;;;;;;;3.17;1.50;;;;;;;18.54;67.32;96568.44;10546464;28;20544;-31
2022/10/16 05:13:10;;;;;;;4.15;1.20;;;;;;;18.54;65.29;96574.38;10553851;27;20032;-31
2022/10/16 05:18:10;;;;;;;1.85;0.95;;;;;;;18.56;65.73;96581.94;10559384;28;20779;-32
2022/10/16 05:23:11;;;;;;;1.07;0.80;;;;;;;18.57;64.87;96594.63;10555148;27;20035;-31
2022/10/16 05:28:11;;;;;;;0.98;0.75;;;;;;;18.58;65.13;96605.63;10552867;27;20031;-30
2022/10/16 05:33:13;;;;;;;2.07;1.27;;;;;;;18.58;65.41;96606.47;10557181;28;20404;-31
2022/10/16 05:38:13;;;;;;;1.58;1.20;;;;;;;18.60;65.12;96614.06;10577405;28;20324;-31
2022/10/16 05:43:13;;;;;;;1.17;1.00;;;;;;;18.61;65.38;96621.69;10574907;28;20035;-32
2022/10/16 05:48:14;;;;;;;2.73;0.93;;;;;;;18.65;65.35;96619.97;10574824;28;20031;-31
2022/10/16 05:53:14;;;;;;;1.47;1.10;;;;;;;18.63;65.56;96603.91;10570941;28;20041;-31
2022/10/16 05:58:15;;;;;;;1.67;1.10;;;;;;;18.64;66.24;96598.84;10556708;27;20032;-32
2022/10/16 06:03:15;;;;;;;1.63;0.80;;;;;;;18.66;66.94;96611.53;10571604;28;20031;-31
2022/10/16 06:08:16;;;;;;;5.00;1.20;;;;;;;18.66;65.79;96624.22;10552349;28;20036;-31
2022/10/16 06:13:16;;;;;;;3.42;1.30;;;;;;;18.63;65.44;96626.72;10555174;28;20032;-32
2022/10/16 06:18:16;;;;;;;2.43;1.43;;;;;;;18.62;65.27;96622.50;10552280;28;20030;-30
2022/10/16 06:23:17;;;;;;;2.67;1.73;;;;;;;18.62;65.71;96627.59;10555327;28;20296;-31
2022/10/16 06:28:18;;;;;;;0.85;0.80;;;;;;;18.60;65.26;96636.88;10563963;28;20055;-32
2022/10/16 06:33:18;;;;;;;1.08;0.80;;;;;;;18.59;65.32;96658.84;10561124;28;20477;-31
2022/10/16 06:38:19;;;;;;;2.38;0.82;;;;;;;18.61;65.14;96661.41;10560381;27;20051;-31
2022/10/16 06:43:19;;;;;;;2.27;1.40;;;;;;;18.60;65.03;96667.31;10565301;28;20031;-31
2022/10/16 06:48:20;;;;;;;4.78;0.93;;;;;;;18.60;64.85;96670.69;10569975;28;20036;-31
2022/10/16 06:53:21;;;;;;;5.00;1.52;;;;;;;18.62;67.05;96681.69;10568357;28;20023;-31
2022/10/16 06:58:22;;;;;;;4.78;1.30;;;;;;;18.65;67.40;96675.75;10566461;28;20020;-31
2022/10/16 07:03:22;;;;;;;2.05;0.93;;;;;;;18.63;67.02;96678.31;10563280;28;20066;-31
2022/10/16 07:08:23;;;;;;;2.80;0.90;;;;;;;18.62;66.06;96693.50;10563282;28;20569;-31
2022/10/16 07:13:23;;;;;;;0.97;0.83;;;;;;;18.60;65.35;96711.25;10568091;28;20358;-31
2022/10/16 07:18:26;;;;;;;1.63;1.10;;;;;;;18.60;65.20;96721.41;10565901;28;20295;-31
2022/10/16 07:23:26;;;;;;;1.30;0.82;;;;;;;18.59;65.22;96727.31;10560828;28;20059;-31
2022/10/16 07:28:27;;;;;;;2.33;0.80;;;;;;;18.58;64.96;96725.63;10564624;28;20056;-32
2022/10/16 07:33:28;;;;;;;0.80;0.68;;;;;;;18.53;64.67;96727.34;10563781;28;20039;-31
2022/10/16 07:38:29;;;;;;;4.40;0.90;;;;;;;18.55;65.00;96732.38;10567470;28;20504;-32
2022/10/16 07:43:29;;;;;;;19.10;2.17;;;;;;;18.56;65.56;96745.06;10551333;28;20024;-32
2022/10/16 07:48:32;;;;;;;12.05;1.63;;;;;;;18.61;66.35;96752.69;10555893;28;20047;-32
2022/10/16 07:53:33;;;;;;;3.28;1.17;;;;;;;18.62;67.75;96760.28;10567363;28;20085;-31
2022/10/16 07:58:36;;;;;;;4.03;1.13;;;;;;;18.65;68.02;96764.50;10538819;28;20554;-31
2022/10/16 08:03:37;;;;;;;6.93;1.20;;;;;;;18.62;65.98;96775.50;10558484;28;20031;-32
2022/10/16 08:08:37;;;;;;;4.30;1.08;;;;;;;18.60;64.89;96782.25;10569077;28;20066;-30
2022/10/16 08:13:38;;;;;;;8.90;1.00;;;;;;;18.58;64.83;96780.59;10559009;28;20513;-31
2022/10/16 08:18:39;;;;;;;4.33;1.23;;;;;;;18.56;64.39;96775.50;10559544;28;20336;-29
2022/10/16 08:23:40;;;;;;;6.40;1.10;;;;;;;18.57;67.71;96783.97;10560967;28;20027;-35
2022/10/16 08:28:40;;;;;;;8.75;1.00;;;;;;;18.56;65.39;96789.84;10556064;28;20477;-32
2022/10/16 08:33:44;;;;;;;2.23;0.90;;;;;;;18.57;64.83;96796.66;10552448;28;20390;-31
2022/10/16 08:38:48;;;;;;;3.47;1.10;;;;;;;18.54;66.30;96801.69;10555751;28;20289;-30
2022/10/16 08:44:14;;;;;;;1.75;0.85;;;;;;;18.59;64.52;96795.78;10555256;28;20034;-31
2022/10/16 08:49:14;;;;;;;5.40;1.30;;;;;;;18.93;66.29;96794.09;10557708;28;20038;-31
2022/10/16 08:54:26;;;;;;;3.95;1.00;;;;;;;18.81;67.91;96789.00;10559458;28;20032;-31
2022/10/16 08:59:26;;;;;;;6.85;1.98;;;;;;;18.74;66.21;96785.63;10556091;28;20036;-32
2022/10/16 09:04:45;;;;;;;8.25;1.25;;;;;;;18.62;65.30;96789.88;10548781;28;20035;-32
2022/10/16 09:10:00;;;;;;;5.22;1.17;;;;;;;18.63;64.77;96786.47;10544018;28;20128;-31
2022/10/16 09:15:15;;;;;;;6.93;1.45;;;;;;;18.61;64.63;96800.84;10550385;28;20066;-32
2022/10/16 09:20:32;;;;;;;4.93;1.15;;;;;;;18.61;64.58;96808.47;10549900;28;20032;-32
2022/10/16 09:25:34;;;;;;;5.60;2.22;;;;;;;18.67;67.37;96811.00;10553864;28;20067;-31
2022/10/16 09:30:35;;;;;;;6.13;0.95;;;;;;;18.64;65.24;96813.53;10550896;28;20036;-30
2022/10/16 09:35:44;;;;;;;14.65;2.05;;;;;;;18.75;69.33;96827.09;10557026;28;20044;-31
2022/10/16 09:40:45;;;;;;;4.30;1.48;;;;;;;18.83;68.29;96820.31;10559539;28;20027;-33
2022/10/16 09:46:04;;;;;;;8.13;1.60;;;;;;;18.78;67.66;96820.31;10560558;28;20485;-31
2022/10/16 09:51:13;;;;;;;2.03;0.80;;;;;;;18.69;65.42;96815.25;10563995;28;20027;-31
2022/10/16 09:56:36;;;;;;;3.05;0.95;;;;;;;18.68;65.13;96817.78;10571739;28;20031;-32
2022/10/16 10:01:39;;;;;;;4.85;0.82;;;;;;;18.65;65.07;96825.34;10557486;28;20107;-31
2022/10/16 10:06:50;;;;;;;2.42;0.90;;;;;;;18.64;64.91;96823.66;10569817;28;20485;-32
2022/10/16 10:11:53;;;;;;;4.03;1.10;;;;;;;18.68;67.93;96821.13;10563600;28;20027;-32
2022/10/16 10:17:06;;;;;;;3.25;1.30;;;;;;;18.72;69.51;96824.53;10563456;28;20039;-31
2022/10/16 10:22:25;;;;;;;4.60;1.00;;;;;;;18.73;67.71;96819.47;10572961;28;20039;-31
2022/10/16 10:27:43;;;;;;;2.17;1.10;;;;;;;18.68;66.25;96815.25;10565075;28;20055;-31
2022/10/16 10:32:49;;;;;;;1.30;0.70;;;;;;;18.67;65.19;96821.16;10561296;28;20031;-31
2022/10/16 10:38:17;;;;;;;2.65;1.00;;;;;;;18.66;65.00;96822.00;10570569;28;20520;-32
2022/10/16 10:43:20;;;;;;;5.00;1.27;;;;;;;18.65;65.11;96822.81;10556004;28;20035;-30
2022/10/16 10:48:58;;;;;;;2.20;0.75;;;;;;;18.64;65.07;96813.53;10565294;28;20043;-31
2022/10/16 10:53:58;;;;;;;;;;;;;;;18.67;68.16;96814.38;10564237;28;20051;-32
2022/10/16 10:59:36;;;;;;;4.88;1.10;;;;;;;18.69;69.07;96806.78;10561301;28;19942;-31
2022/10/16 11:05:07;;;;;;;1.42;0.68;;;;;;;18.71;67.18;96800.00;10538645;28;20040;-31
2022/10/16 11:10:15;;;;;;;2.15;0.63;;;;;;;18.68;65.31;96795.78;10567381;28;20382;-32
2022/10/16 11:15:19;;;;;;;2.10;0.80;;;;;;;18.65;64.93;96795.78;10565011;28;20043;-31
2022/10/16 11:20:27;;;;;;;4.53;1.42;;;;;;;18.64;64.88;96786.50;10560796;28;20077;-32
2022/10/16 11:25:32;;;;;;;1.73;0.90;;;;;;;18.66;64.79;96796.66;10565914;28;20482;-31
2022/10/16 11:30:47;;;;;;;1.05;0.82;;;;;;;18.64;64.81;96793.25;10560992;28;20028;-31
2022/10/16 11:35:47;;;;;;;1.63;0.90;;;;;;;18.64;64.94;96793.25;10553315;28;20024;-32
2022/10/16 11:40:53;;;;;;;2.60;0.83;;;;;;;18.68;68.64;96787.34;10565316;28;20035;-32
2022/10/16 11:45:57;;;;;;;0.83;0.83;;;;;;;18.69;68.68;96789.88;10555713;28;20082;-32
2022/10/16 11:51:35;;;;;;;2.05;0.80;;;;;;;18.71;66.91;96783.13;10566713;28;20401;-32
2022/10/16 11:56:40;;;;;;;1.45;0.80;;;;;;;18.68;65.19;96793.25;10561066;28;20390;-32
2022/10/16 12:01:46;;;;;;;3.88;0.60;;;;;;;18.63;65.26;96791.56;10566780;28;20486;-32
2022/10/16 12:06:57;;;;;;;1.73;1.10;;;;;;;18.66;64.92;96797.47;10555620;28;20172;-32
2022/10/16 12:11:58;;;;;;;3.70;0.70;;;;;;;18.65;64.96;96792.38;10561657;28;20028;-31
2022/10/16 12:17:02;;;;;;;1.15;0.70;;;;;;;18.66;64.60;96789.03;10562882;28;20091;-31
2022/10/16 12:22:03;;;;;;;4.13;0.73;;;;;;;18.60;65.51;96783.97;10557868;28;20023;-31
2022/10/16 12:27:20;;;;;;;1.42;0.73;;;;;;;18.77;67.68;96780.56;10562304;28;20409;-31
2022/10/16 12:32:29;;;;;;;2.10;1.10;;;;;;;18.90;65.42;96777.19;10564294;28;20028;-32
2022/10/16 12:37:34;;;;;;;2.63;1.30;;;;;;;18.89;64.13;96774.63;10559379;28;20099;-32
2022/10/16 12:42:34;;;;;;;1.02;0.80;;;;;;;18.80;64.15;96774.66;10563844;28;20024;-31
2022/10/16 12:47:38;;;;;;;1.98;1.20;;;;;;;18.74;64.22;96769.59;10562563;28;20031;-31
2022/10/16 12:52:38;;;;;;;1.30;1.17;;;;;;;18.69;64.27;96761.13;10564728;28;20043;-32
2022/10/16 12:57:57;;;;;;;1.77;0.77;;;;;;;18.69;64.17;96751.00;10560270;28;20050;-32
2022/10/16 13:03:22;;;;;;;0.80;0.60;;;;;;;18.67;64.37;96760.28;10558098;28;20485;-32
2022/10/16 13:08:53;;;;;;;2.65;1.50;;;;;;;18.63;64.41;96740.84;10558637;28;20032;-31
2022/10/16 13:14:16;;;;;;;4.53;1.25;;;;;;;18.69;64.06;96758.59;10561539;28;20063;-32
2022/10/16 13:19:31;;;;;;;2.75;1.02;;;;;;;18.72;62.89;96756.06;10559067;28;20056;-31
2022/10/16 13:24:50;;;;;;;4.38;0.98;;;;;;;18.75;63.19;96756.06;10572270;28;20592;-34
2022/10/16 13:29:55;;;;;;;4.40;2.05;;;;;;;18.72;63.67;96761.13;10571792;28;20031;-31
2022/10/16 13:34:55;;;;;;;7.78;4.32;;;;;;;18.68;63.96;96752.66;10566799;28;20032;-29
2022/10/16 13:40:17;;;;;;;3.20;2.65;;;;;;;18.67;63.92;96752.69;10569995;28;20045;-31
2022/10/16 13:45:25;;;;;;;2.67;2.17;;;;;;;18.67;64.03;96757.75;10570491;28;20020;-31
2022/10/16 13:50:25;;;;;;;3.55;1.95;;;;;;;18.68;64.11;96751.84;10568462;28;20496;-31
2022/10/16 13:55:33;;;;;;;3.70;2.07;;;;;;;18.65;63.91;96759.44;10568911;28;20031;-34
2022/10/16 14:00:35;;;;;;;2.80;1.80;;;;;;;18.63;64.23;96758.59;10557783;28;20032;-30
2022/10/16 14:05:35;;;;;;;2.60;1.70;;;;;;;18.65;64.01;96764.50;10568196;28;20545;-31
2022/10/16 14:10:36;;;;;;;3.22;1.20;;;;;;;18.73;65.42;96758.59;10566566;28;20031;-31
2022/10/16 14:15:36;;;;;;;1.60;1.08;;;;;;;18.78;65.63;96766.19;10555814;28;20045;-32
2022/10/16 14:20:37;;;;;;;4.20;1.23;;;;;;;18.78;65.41;96758.59;10564805;28;20472;-32
2022/10/16 14:25:37;;;;;;;6.38;1.80;;;;;;;18.68;65.18;96760.28;10571742;28;20028;-32
2022/10/16 14:30:53;;;;;;;3.93;1.50;;;;;;;18.67;65.14;96758.59;10562908;28;20120;-30
2022/10/16 14:36:12;;;;;;;3.83;1.50;;;;;;;18.67;65.06;96762.84;10560151;28;20285;-32
2022/10/16 14:41:12;;;;;;;2.38;1.42;;;;;;;18.65;65.17;96772.09;10568152;28;20028;-31
2022/10/16 14:46:18;;;;;;;3.13;1.23;;;;;;;18.64;65.08;96767.88;10562176;28;20437;-32
2022/10/16 14:51:20;;;;;;;4.65;2.03;;;;;;;18.65;65.02;96761.97;10567391;28;20342;-33
2022/10/16 14:56:23;;;;;;;2.33;1.30;;;;;;;18.63;65.16;96766.19;10556041;28;20473;-31
2022/10/16 15:01:24;;;;;;;5.28;1.20;;;;;;;18.68;66.76;96761.97;10560845;28;20031;-31
2022/10/16 15:06:24;;;;;;;4.75;2.80;;;;;;;18.77;67.36;96764.50;10563240;28;20362;-31
2022/10/16 15:11:25;;;;;;;3.53;1.20;;;;;;;18.80;66.48;96774.66;10568175;28;20116;-32
2022/10/16 15:16:25;;;;;;;2.00;1.00;;;;;;;18.79;66.63;96773.81;10572905;28;20027;-32
2022/10/16 15:21:30;;;;;;;3.90;1.50;;;;;;;18.80;65.91;96779.72;10543180;27;20694;-31
2022/10/16 15:26:31;;;;;;;3.58;1.20;;;;;;;18.74;65.09;96779.75;10563716;28;20032;-33
2022/10/16 15:31:32;;;;;;;1.30;0.90;;;;;;;18.66;64.85;96774.66;10563253;28;20034;-32
2022/10/16 15:36:36;;;;;;;1.70;1.13;;;;;;;18.69;64.94;96783.97;10561696;28;20338;-31
2022/10/16 15:41:36;;;;;;;2.00;1.30;;;;;;;18.78;67.79;96781.41;10565388;28;20386;-31
2022/10/16 15:46:37;;;;;;;1.83;1.00;;;;;;;18.84;67.68;96784.78;10557993;28;20028;-31
2022/10/16 15:51:39;;;;;;;3.13;1.38;;;;;;;18.80;66.71;96794.94;10566785;28;20032;-31
2022/10/16 15:56:39;;;;;;;2.60;1.02;;;;;;;18.77;66.26;96805.09;10563144;28;20028;-31
2022/10/16 16:01:40;;;;;;;3.07;1.20;;;;;;;18.72;65.19;96804.22;10558128;28;20035;-30
2022/10/16 16:06:44;;;;;;;1.20;1.00;;;;;;;18.70;65.03;96816.94;10557156;28;20028;-31
2022/10/16 16:11:44;;;;;;;2.15;1.02;;;;;;;18.72;64.86;96824.53;10561719;28;20024;-31
2022/10/16 16:16:45;;;;;;;0.83;0.80;;;;;;;18.70;64.83;96821.16;10565234;28;20401;-31
2022/10/16 16:21:45;;;;;;;1.75;1.20;;;;;;;18.72;66.99;96815.25;10547877;28;20095;-30
2022/10/16 16:26:46;;;;;;;10.10;1.93;;;;;;;18.80;68.26;96817.75;10567170;28;20039;-34
2022/10/16 16:31:46;;;;;;;9.03;1.70;;;;;;;18.80;68.24;96821.16;10562338;28;20116;-33
2022/10/16 16:36:47;;;;;;;6.00;1.20;;;;;;;18.79;66.88;96823.69;10552802;28;20293;-32
2022/10/16 16:41:47;;;;;;;2.93;0.97;;;;;;;18.74;65.41;96835.53;10549420;28;20469;-31
2022/10/16 16:46:48;;;;;;;2.97;1.00;;;;;;;18.71;64.83;96840.59;10541513;28;20031;-31
2022/10/16 16:51:48;;;;;;;2.77;1.20;;;;;;;18.72;66.46;96852.41;10557856;28;20036;-32
2022/10/16 16:56:49;;;;;;;2.13;1.20;;;;;;;18.71;65.21;96855.81;10554902;28;20042;-32
2022/10/16 17:01:51;;;;;;;2.20;1.00;;;;;;;18.70;65.03;96859.19;10561049;28;20636;-31
2022/10/16 17:06:54;;;;;;;2.60;1.45;;;;;;;18.77;68.47;96873.56;10555147;28;20306;-32
2022/10/16 17:11:54;;;;;;;3.40;1.20;;;;;;;18.82;68.56;96875.28;10559424;28;20449;-31
2022/10/16 17:16:55;;;;;;;2.50;1.10;;;;;;;18.79;67.67;96876.94;10556857;28;20031;-32
2022/10/16 17:21:55;;;;;;;2.72;1.40;;;;;;;18.77;67.33;96896.41;10553630;28;20053;-31
2022/10/16 17:26:56;;;;;;;4.87;1.00;;;;;;;18.73;67.10;96892.16;10555740;28;20106;-31
2022/10/16 17:31:58;;;;;;;2.17;1.25;;;;;;;18.72;66.46;96893.84;10550163;28;20030;-31
2022/10/16 17:36:58;;;;;;;1.98;0.73;;;;;;;18.70;65.35;96894.69;10534986;28;20051;-31
2022/10/16 17:41:59;;;;;;;1.65;1.05;;;;;;;18.70;65.20;96909.91;10546520;28;20417;-32
2022/10/16 17:46:59;;;;;;;3.22;1.27;;;;;;;18.69;65.21;96920.91;10554559;28;20032;-31
2022/10/16 17:52:01;;;;;;;3.13;1.60;;;;;;;18.78;68.67;96923.47;10553722;28;20036;-31
2022/10/16 17:57:02;;;;;;;5.97;1.52;;;;;;;18.73;69.47;96925.13;10551576;28;20301;-32
2022/10/16 18:02:03;;;;;;;3.33;1.00;;;;;;;18.83;68.08;96944.63;10551093;28;20030;-31
2022/10/16 18:07:03;;;;;;;4.18;1.20;;;;;;;18.78;66.91;96949.69;10549473;28;20091;-31
2022/10/16 18:12:04;;;;;;;3.07;1.03;;;;;;;18.74;65.43;96957.28;10557592;28;20561;-32
2022/10/16 18:17:04;;;;;;;2.08;0.80;;;;;;;18.71;65.31;96947.97;10557663;28;20311;-30
2022/10/16 18:22:04;;;;;;;5.47;1.17;;;;;;;18.72;65.58;96964.00;10543681;28;20027;-32
2022/10/16 18:27:05;;;;;;;3.60;1.17;;;;;;;18.70;65.20;96965.72;10561956;28;20110;-33
2022/10/16 18:32:05;;;;;;;4.93;1.20;;;;;;;18.77;69.31;96959.81;10559923;28;20043;-31
2022/10/16 18:37:06;;;;;;;4.17;1.30;;;;;;;18.83;69.31;96962.38;10561364;28;20447;-31
2022/10/16 18:42:06;;;;;;;5.25;1.42;;;;;;;18.82;68.68;96964.06;10563124;28;20027;-32
2022/10/16 18:47:07;;;;;;;4.78;1.60;;;;;;;18.80;66.78;96980.09;10558927;28;20038;-31
2022/10/16 18:52:07;;;;;;;4.50;1.53;;;;;;;18.74;65.82;96978.41;10563634;28;20031;-31
2022/10/16 18:57:07;;;;;;;3.53;1.20;;;;;;;18.72;65.66;96984.31;10559543;28;20288;-32
2022/10/16 19:02:08;;;;;;;1.35;0.90;;;;;;;18.71;65.28;96992.75;10556913;28;20028;-31
2022/10/16 19:07:10;;;;;;;1.92;1.20;;;;;;;18.70;65.27;96989.41;10560057;28;20036;-31
2022/10/16 19:12:10;;;;;;;2.30;1.17;;;;;;;18.66;65.13;96994.44;10567605;28;20035;-31
2022/10/16 19:17:10;;;;;;;2.33;1.20;;;;;;;18.78;69.05;96999.56;10555964;28;20020;-31
2022/10/16 19:22:13;;;;;;;2.50;1.00;;;;;;;18.76;68.74;96991.09;10548133;28;20304;-31
2022/10/16 19:27:13;;;;;;;4.70;1.10;;;;;;;18.80;68.33;97008.88;10559718;28;20838;-31
2022/10/16 19:32:14;;;;;;;5.33;1.00;;;;;;;18.78;67.01;97020.72;10561952;28;20119;-32
2022/10/16 19:37:14;;;;;;;3.03;1.20;;;;;;;18.77;66.80;97023.22;10556742;28;20039;-31
2022/10/16 19:42:14;;;;;;;2.60;0.97;;;;;;;18.72;65.53;97030.81;10559570;28;20027;-31
2022/10/16 19:47:15;;;;;;;2.92;0.85;;;;;;;18.71;65.31;97035.88;10539998;28;20054;-33
2022/10/16 19:52:20;;;;;;;2.17;1.00;;;;;;;18.71;65.11;97051.09;10559369;28;20038;-32
2022/10/16 19:57:22;;;;;;;2.00;1.13;;;;;;;18.70;65.34;97051.94;10558373;28;20162;-32
2022/10/16 20:02:22;;;;;;;1.52;1.10;;;;;;;18.75;68.23;97062.97;10555243;28;20034;-31
2022/10/16 20:07:23;;;;;;;1.93;1.10;;;;;;;18.82;68.26;97074.84;10556247;28;20598;-32
2022/10/16 20:12:23;;;;;;;1.50;1.00;;;;;;;18.81;67.83;97086.66;10543695;28;20028;-31
2022/10/16 20:17:24;;;;;;;6.97;0.90;;;;;;;18.80;66.61;97084.97;10550161;28;20065;-32
2022/10/16 20:22:24;;;;;;;1.47;0.93;;;;;;;18.77;66.75;97091.72;10543900;28;20036;-31
2022/10/16 20:27:27;;;;;;;1.13;0.90;;;;;;;18.72;65.45;97091.69;10544912;28;20706;-30
2022/10/16 20:32:31;;;;;;;3.38;1.05;;;;;;;18.71;65.34;97091.69;10557802;28;20308;-31
2022/10/16 20:37:32;;;;;;;2.20;1.00;;;;;;;18.69;65.30;97095.91;10553114;28;20031;-29
2022/10/16 20:42:32;;;;;;;2.60;1.13;;;;;;;18.71;65.57;97109.44;10550722;28;20028;-30
2022/10/16 20:47:33;;;;;;;2.63;1.00;;;;;;;18.68;67.00;97110.25;10548249;28;20754;-30
2022/10/16 20:52:33;;;;;;;2.92;1.08;;;;;;;18.81;69.02;97111.16;10560415;28;20524;-30
2022/10/16 20:57:34;;;;;;;2.05;0.82;;;;;;;18.84;69.02;97113.75;10558821;28;20088;-30
2022/10/16 21:02:34;;;;;;;4.00;0.70;;;;;;;18.81;67.17;97106.09;10557214;28;20038;-29
2022/10/16 21:07:35;;;;;;;3.10;1.23;;;;;;;18.75;66.97;97111.16;10558947;28;20118;-29
2022/10/16 21:12:35;;;;;;;1.73;0.90;;;;;;;18.74;66.36;97109.47;10563614;28;20310;-29
2022/10/16 21:17:36;;;;;;;2.50;1.00;;;;;;;18.71;65.42;97117.91;10561429;28;20425;-29
2022/10/16 21:22:36;;;;;;;1.33;0.70;;;;;;;18.70;65.35;97117.88;10557099;28;20282;-30
2022/10/16 21:27:38;;;;;;;2.47;0.93;;;;;;;18.70;65.70;97112.81;10570229;28;20028;-29
2022/10/16 21:32:39;;;;;;;3.20;0.93;;;;;;;18.70;65.29;97117.88;10553558;28;20035;-27
2022/10/16 21:37:39;;;;;;;2.45;0.80;;;;;;;18.76;68.24;97128.06;10564442;28;20034;-30
2022/10/16 21:42:39;;;;;;;4.47;1.45;;;;;;;18.82;68.63;97117.97;10566110;28;20055;-29
2022/10/16 21:47:40;;;;;;;1.77;1.17;;;;;;;18.79;67.75;97120.47;10566197;28;20073;-29
2022/10/16 21:52:41;;;;;;;1.17;1.07;;;;;;;18.75;67.37;97111.16;10571396;28;20038;-29
2022/10/16 21:57:42;;;;;;;5.53;1.15;;;;;;;18.75;67.29;97123.84;10566319;28;20683;-29
2022/10/16 22:02:42;;;;;;;2.20;0.93;;;;;;;18.74;66.39;97122.16;10564117;28;20027;-30
2022/10/16 22:07:42;;;;;;;2.50;1.10;;;;;;;18.71;67.12;97119.56;10566288;28;20073;-30
2022/10/16 22:12:43;;;;;;;6.37;0.80;;;;;;;18.71;65.41;97119.56;10564238;28;20522;-31
2022/10/16 22:17:43;;;;;;;1.90;0.90;;;;;;;18.69;65.40;97108.59;10561638;28;20285;-30
2022/10/16 22:22:44;;;;;;;2.65;1.45;;;;;;;18.68;65.91;97109.44;10564906;28;20031;-30
2022/10/16 22:27:44;;;;;;;2.57;0.97;;;;;;;18.80;69.25;97117.09;10568227;28;20034;-29
2022/10/16 22:32:45;;;;;;;2.97;1.03;;;;;;;18.83;68.75;97117.94;10566166;28;20028;-29
2022/10/16 22:37:45;;;;;;;2.80;1.03;;;;;;;18.79;67.29;97113.72;10570344;28;20031;-30
2022/10/16 22:42:45;;;;;;;3.17;0.98;;;;;;;18.77;67.13;97122.97;10567116;28;20024;-29
2022/10/16 22:47:46;;;;;;;5.30;1.00;;;;;;;18.73;67.00;97116.22;10564684;28;20046;-29
2022/10/16 22:52:46;;;;;;;2.90;1.10;;;;;;;18.72;65.75;97124.66;10570394;28;20293;-31
2022/10/16 22:57:46;;;;;;;6.47;1.37;;;;;;;18.73;66.39;97130.56;10558905;28;20028;-30
2022/10/16 23:02:47;;;;;;;3.90;1.37;;;;;;;18.71;66.27;97128.03;10563053;28;20108;-29
2022/10/16 23:07:48;;;;;;;1.80;1.13;;;;;;;18.69;65.37;97131.41;10566251;28;20448;-30
2022/10/16 23:12:49;;;;;;;1.55;1.17;;;;;;;18.69;66.29;97136.47;10561088;28;20032;-29
2022/10/16 23:17:49;;;;;;;3.57;1.60;;;;;;;18.78;69.08;97137.38;10567372;28;20024;-29
2022/10/16 23:22:50;;;;;;;4.17;1.10;;;;;;;18.82;67.95;97140.78;10562750;28;20225;-28
2022/10/16 23:27:54;;;;;;;1.20;0.90;;;;;;;18.78;67.20;97137.38;10561681;28;20288;-30
2022/10/16 23:32:54;;;;;;;1.73;1.00;;;;;;;18.71;67.43;97127.19;10563717;28;20032;-29